Time;durP1;ratioP1;P1;durP2;ratioP2;P2;SDS_P1;SDS_P2;PMS_P1;PMS_P2;Temp;Humidity;BMP_temperature;BMP_pressure;BME280_temperature;BME280_humidity;BME280_pressure;Samples;Min_cycle;Max_cycle;Signal;HPM_P1;HPM_P2
2023/12/17 00:01:05;;;;;;;1.40;0.60;;;;;;;9.42;100.00;103913.88;5075559;27;100947;-28
2023/12/17 00:03:31;;;;;;;0.73;0.50;;;;;;;9.42;100.00;103908.47;5093955;27;96524;-28
2023/12/17 00:05:56;;;;;;;1.10;0.60;;;;;;;9.41;100.00;103902.13;5094236;27;96855;-28
2023/12/17 00:08:22;;;;;;;0.35;0.35;;;;;;;9.41;100.00;103903.94;5093985;27;99845;-28
2023/12/17 00:10:48;;;;;;;0.63;0.45;;;;;;;9.39;100.00;103897.63;5075381;27;101013;-28
2023/12/17 00:13:13;;;;;;;0.45;0.40;;;;;;;9.40;100.00;103889.50;5075448;27;96696;-27
2023/12/17 00:15:40;;;;;;;4.13;0.68;;;;;;;9.43;100.00;103902.13;5094263;27;96754;-28
2023/12/17 00:18:05;;;;;;;1.80;0.50;;;;;;;9.44;100.00;103899.41;5075382;27;99608;-28
2023/12/17 00:20:31;;;;;;;0.35;0.28;;;;;;;9.39;100.00;103884.09;5094329;27;97764;-28
2023/12/17 00:22:57;;;;;;;4.63;0.77;;;;;;;9.40;100.00;103885.91;5074471;27;96661;-28
2023/12/17 00:25:22;;;;;;;1.40;0.50;;;;;;;9.37;100.00;103873.31;5093800;27;96737;-28
2023/12/17 00:27:47;;;;;;;0.80;0.28;;;;;;;9.41;100.00;103882.28;5093650;27;98604;-28
2023/12/17 00:30:13;;;;;;;0.30;0.25;;;;;;;9.40;100.00;103881.41;5093878;27;97061;-28
2023/12/17 00:32:38;;;;;;;2.30;0.75;;;;;;;9.40;100.00;103880.50;5093850;27;96703;-29
2023/12/17 00:35:04;;;;;;;0.50;0.50;;;;;;;9.41;100.00;103874.19;5093885;27;96818;-28
2023/12/17 00:37:29;;;;;;;0.52;0.43;;;;;;;9.39;100.00;103871.50;5093611;27;99609;-28
2023/12/17 00:39:54;;;;;;;1.23;0.55;;;;;;;9.42;100.00;103868.75;5093662;27;97298;-28
2023/12/17 00:42:20;;;;;;;0.70;0.47;;;;;;;9.33;100.00;103864.31;5093849;27;96534;-28
2023/12/17 00:44:45;;;;;;;2.95;0.85;;;;;;;9.42;100.00;103886.81;5094075;27;96775;-28
2023/12/17 00:47:10;;;;;;;0.52;0.45;;;;;;;9.39;100.00;103874.22;5094021;27;97290;-28
2023/12/17 00:49:36;;;;;;;0.32;0.32;;;;;;;9.39;100.00;103876.91;5093261;27;97334;-28
2023/12/17 00:52:01;;;;;;;1.98;0.32;;;;;;;9.40;100.00;103876.00;5092795;27;96555;-28
2023/12/17 00:54:26;;;;;;;0.22;0.22;;;;;;;9.41;100.00;103874.19;5093580;27;96791;-28
2023/12/17 00:56:51;;;;;;;0.32;0.32;;;;;;;9.41;100.00;103869.66;5093534;27;97910;-28
2023/12/17 00:59:17;;;;;;;0.38;0.20;;;;;;;9.45;100.00;103873.25;5093005;27;97775;-28
2023/12/17 01:01:43;;;;;;;0.68;0.50;;;;;;;9.44;100.00;103871.44;5093250;27;97430;-28
2023/12/17 01:04:09;;;;;;;1.58;0.45;;;;;;;9.38;100.00;103860.69;5093555;27;97307;-28
2023/12/17 01:06:34;;;;;;;6.93;0.55;;;;;;;9.42;100.00;103863.34;5093327;27;98014;-28
2023/12/17 01:08:59;;;;;;;1.80;0.47;;;;;;;9.40;100.00;103859.75;5093851;27;97885;-28
2023/12/17 01:11:25;;;;;;;0.68;0.32;;;;;;;9.43;100.00;103864.25;5093184;27;96574;-28
2023/12/17 01:13:50;;;;;;;0.20;0.10;;;;;;;9.41;100.00;103850.72;5093010;27;96818;-28
2023/12/17 01:16:15;;;;;;;0.55;0.38;;;;;;;9.43;100.00;103864.25;5092805;27;98035;-28
2023/12/17 01:18:40;;;;;;;3.58;0.30;;;;;;;9.38;100.00;103845.34;5093176;27;97233;-28
2023/12/17 01:21:07;;;;;;;0.38;0.35;;;;;;;9.43;100.00;103845.31;5093082;27;96532;-28
2023/12/17 01:23:32;;;;;;;0.30;0.30;;;;;;;9.44;100.00;103861.53;5092897;27;96490;-28
2023/12/17 01:25:58;;;;;;;1.10;0.47;;;;;;;9.42;100.00;103843.53;5074580;27;99154;-29
2023/12/17 01:28:23;;;;;;;0.15;0.15;;;;;;;9.43;100.00;103857.00;5092863;27;101651;-28
2023/12/17 01:30:48;;;;;;;0.38;0.30;;;;;;;9.44;100.00;103849.78;5092967;27;96666;-28
2023/12/17 01:33:14;;;;;;;0.60;0.40;;;;;;;9.46;100.00;103850.69;5093494;27;96855;-29
2023/12/17 01:35:39;;;;;;;1.38;0.40;;;;;;;9.41;100.00;103841.72;5096074;27;104811;-28
2023/12/17 01:38:04;;;;;;;0.50;0.30;;;;;;;9.46;100.00;103854.31;5096686;27;97603;-29
2023/12/17 01:40:30;;;;;;;1.10;0.28;;;;;;;9.46;100.00;103851.59;5096196;27;96479;-28
2023/12/17 01:42:56;;;;;;;0.82;0.38;;;;;;;9.44;100.00;103841.66;5077521;27;96866;-29
2023/12/17 01:45:22;;;;;;;0.30;0.30;;;;;;;9.44;100.00;103828.16;5077649;27;101047;-28
2023/12/17 01:47:48;;;;;;;0.70;0.50;;;;;;;9.48;100.00;103841.63;5096622;27;97815;-28
2023/12/17 01:50:14;;;;;;;1.08;0.50;;;;;;;9.42;100.00;103825.47;5077724;27;96785;-29
2023/12/17 01:52:40;;;;;;;0.30;0.30;;;;;;;9.42;100.00;103832.69;5077673;27;96776;-28
2023/12/17 01:55:07;;;;;;;2.58;0.32;;;;;;;9.44;100.00;103829.06;5096490;27;97961;-28
2023/12/17 01:57:32;;;;;;;2.83;0.57;;;;;;;9.44;100.00;103831.78;5077158;27;100693;-28
2023/12/17 01:59:58;;;;;;;0.30;0.30;;;;;;;9.38;100.00;103828.22;5096520;27;96454;-29
2023/12/17 02:02:23;;;;;;;0.63;0.45;;;;;;;9.35;100.00;103824.63;5096001;27;96852;-29
2023/12/17 02:04:49;;;;;;;0.30;0.30;;;;;;;9.37;100.00;103827.31;5095778;27;97217;-28
2023/12/17 02:07:14;;;;;;;0.75;0.32;;;;;;;9.33;100.00;103828.25;5077732;27;97770;-28
2023/12/17 02:09:41;;;;;;;3.15;0.75;;;;;;;9.38;100.00;103852.56;5077644;27;96561;-30
2023/12/17 02:12:06;;;;;;;0.98;0.40;;;;;;;9.38;100.00;103855.28;5077439;27;96843;-28
2023/12/17 02:14:31;;;;;;;0.68;0.47;;;;;;;9.38;100.00;103871.50;5095725;27;99300;-30
2023/12/17 02:16:57;;;;;;;0.65;0.65;;;;;;;9.39;100.00;103876.00;5096285;27;97258;-28
2023/12/17 02:19:22;;;;;;;0.60;0.35;;;;;;;9.38;100.00;103876.91;5096099;27;96511;-28
2023/12/17 02:21:47;;;;;;;0.88;0.40;;;;;;;9.31;100.00;103862.53;5096419;27;96859;-28
2023/12/17 02:24:13;;;;;;;1.67;0.40;;;;;;;9.33;100.00;103876.94;5095996;27;97882;-29
2023/12/17 02:26:42;;;;;;;4.03;1.05;;;;;;;9.33;100.00;103876.94;5095884;27;97752;-28
2023/12/17 02:29:07;;;;;;;0.93;0.73;;;;;;;9.33;100.00;103874.25;5095552;27;96467;-28
2023/12/17 02:31:32;;;;;;;0.70;0.60;;;;;;;9.31;100.00;103868.81;5095625;27;96755;-28
2023/12/17 02:33:58;;;;;;;1.50;0.98;;;;;;;9.31;100.00;103874.25;5095650;27;97768;-28
2023/12/17 02:36:23;;;;;;;1.50;0.88;;;;;;;9.31;100.00;103871.53;5095714;27;98629;-28
2023/12/17 02:38:49;;;;;;;0.77;0.63;;;;;;;9.26;100.00;103867.97;5095776;27;96533;-28
2023/12/17 02:41:14;;;;;;;2.17;0.80;;;;;;;9.29;100.00;103870.63;5095675;27;96827;-30
2023/12/17 02:43:39;;;;;;;2.95;1.30;;;;;;;9.26;100.00;103864.38;5076912;27;101104;-28
2023/12/17 02:46:05;;;;;;;3.53;0.70;;;;;;;9.31;100.00;103870.66;5095210;27;98044;-28
2023/12/17 02:48:30;;;;;;;5.90;1.00;;;;;;;9.27;100.00;103860.75;5076977;27;96534;-29
2023/12/17 02:50:55;;;;;;;0.90;0.68;;;;;;;9.30;100.00;103860.75;5095118;27;97801;-28
2023/12/17 02:53:21;;;;;;;1.05;0.63;;;;;;;9.25;100.00;103855.38;5094935;27;99973;-28
2023/12/17 02:55:46;;;;;;;1.05;0.90;;;;;;;9.26;100.00;103865.28;5095114;27;99452;-29
2023/12/17 02:58:11;;;;;;;1.98;0.93;;;;;;;9.26;100.00;103858.97;5094992;27;101759;-28
2023/12/17 03:00:37;;;;;;;1.25;0.80;;;;;;;9.26;100.00;103857.16;5095556;27;96771;-29
2023/12/17 03:03:02;;;;;;;2.30;0.98;;;;;;;9.23;100.00;103840.97;5095056;27;103511;-28
2023/12/17 03:05:27;;;;;;;1.63;0.90;;;;;;;9.25;100.00;103847.25;5095036;27;99199;-28
2023/12/17 03:07:53;;;;;;;1.55;1.02;;;;;;;9.23;100.00;103840.97;5095298;27;96537;-28
2023/12/17 03:10:18;;;;;;;2.17;1.23;;;;;;;9.26;100.00;103845.44;5076996;27;96918;-32
2023/12/17 03:12:44;;;;;;;0.88;0.73;;;;;;;9.21;100.00;103842.78;5094978;27;97364;-28
2023/12/17 03:15:09;;;;;;;3.15;1.58;;;;;;;9.24;100.00;103847.25;5094824;27;99118;-28
2023/12/17 03:17:38;;;;;;;2.28;1.00;;;;;;;9.22;100.00;103847.25;5094390;27;96631;-28
2023/12/17 03:20:04;;;;;;;2.42;1.02;;;;;;;9.21;100.00;103842.78;5094870;27;96789;-28
2023/12/17 03:22:31;;;;;;;2.45;1.17;;;;;;;9.22;100.00;103844.56;5076289;27;101082;-28
2023/12/17 03:24:56;;;;;;;1.80;1.20;;;;;;;9.20;100.00;103831.94;5076022;27;100890;-29
2023/12/17 03:27:22;;;;;;;3.67;0.75;;;;;;;9.17;100.00;103827.47;5094790;27;96525;-28
2023/12/17 03:29:47;;;;;;;2.05;0.93;;;;;;;9.21;100.00;103839.19;5094820;27;96864;-30
2023/12/17 03:32:14;;;;;;;5.10;0.95;;;;;;;9.17;100.00;103829.28;5094841;27;98968;-28
2023/12/17 03:34:40;;;;;;;7.18;1.38;;;;;;;9.18;100.00;103837.41;5094824;27;97828;-28
2023/12/17 03:37:06;;;;;;;1.80;1.10;;;;;;;9.19;100.00;103838.28;5094865;27;96519;-28
2023/12/17 03:39:31;;;;;;;1.60;1.10;;;;;;;9.20;100.00;103840.06;5094648;27;96951;-29
2023/12/17 03:41:56;;;;;;;1.27;0.93;;;;;;;9.13;100.00;103834.72;5094241;27;97946;-28
2023/12/17 03:44:21;;;;;;;2.35;1.48;;;;;;;9.17;100.00;103830.16;5094821;27;97952;-30
2023/12/17 03:46:47;;;;;;;2.35;1.40;;;;;;;9.16;100.00;103830.19;5094627;27;96489;-28
2023/12/17 03:49:12;;;;;;;3.33;1.23;;;;;;;9.15;100.00;103821.16;5094685;27;96845;-28
2023/12/17 03:51:37;;;;;;;3.60;1.55;;;;;;;9.12;100.00;103826.59;5094407;27;97927;-29
2023/12/17 03:54:03;;;;;;;2.33;1.42;;;;;;;9.11;100.00;103819.41;5094125;27;99039;-28
2023/12/17 03:56:28;;;;;;;3.20;1.38;;;;;;;9.13;100.00;103823.00;5094357;27;96623;-28
2023/12/17 03:58:54;;;;;;;6.95;2.05;;;;;;;9.11;100.00;103814.00;5093084;27;97177;-28
2023/12/17 04:01:19;;;;;;;6.40;1.35;;;;;;;9.08;100.00;103804.13;5094073;27;106700;-28
2023/12/17 04:03:44;;;;;;;1.88;1.00;;;;;;;9.13;100.00;103810.38;5075774;27;99137;-28
2023/12/17 04:06:10;;;;;;;2.33;1.33;;;;;;;9.16;100.00;103811.28;5093702;27;96632;-28
2023/12/17 04:08:35;;;;;;;1.83;1.15;;;;;;;9.15;100.00;103815.75;5094234;27;96831;-28
2023/12/17 04:11:01;;;;;;;2.72;1.70;;;;;;;9.12;100.00;103811.28;5093606;27;99809;-28
2023/12/17 04:13:26;;;;;;;4.82;1.38;;;;;;;9.11;100.00;103805.91;5094214;27;97842;-28
2023/12/17 04:15:51;;;;;;;2.47;1.30;;;;;;;9.11;100.00;103804.09;5094117;27;96655;-28
2023/12/17 04:18:17;;;;;;;1.98;1.27;;;;;;;9.13;100.00;103795.97;5094161;27;96678;-28
2023/12/17 04:20:42;;;;;;;0.70;0.60;;;;;;;9.06;100.00;103786.13;5093943;27;97884;-28
2023/12/17 04:23:07;;;;;;;1.50;1.02;;;;;;;9.10;100.00;103795.97;5094429;27;97926;-28
2023/12/17 04:25:33;;;;;;;3.35;1.00;;;;;;;9.06;100.00;103791.53;5093929;27;97314;-29
2023/12/17 04:27:58;;;;;;;0.93;0.73;;;;;;;9.05;100.00;103789.72;5094077;27;96740;-28
2023/12/17 04:30:24;;;;;;;1.17;0.85;;;;;;;9.09;100.00;103800.50;5093328;27;97976;-28
2023/12/17 04:32:49;;;;;;;1.58;1.10;;;;;;;9.07;100.00;103783.38;5093806;27;99643;-29
2023/12/17 04:35:15;;;;;;;1.70;0.80;;;;;;;9.07;100.00;103788.78;5093801;27;96757;-28
2023/12/17 04:37:41;;;;;;;2.53;0.90;;;;;;;9.05;100.00;103787.00;5075421;27;96781;-28
2023/12/17 04:40:07;;;;;;;3.60;1.10;;;;;;;9.03;100.00;103788.81;5075092;27;97919;-28
2023/12/17 04:42:32;;;;;;;1.77;1.05;;;;;;;9.00;100.00;103781.63;5075016;27;100844;-29
2023/12/17 04:44:58;;;;;;;1.65;1.10;;;;;;;9.03;100.00;103791.53;5093943;27;96666;-27
2023/12/17 04:47:23;;;;;;;3.00;1.20;;;;;;;9.03;100.00;103788.81;5094188;27;96820;-28
2023/12/17 04:49:49;;;;;;;0.50;0.47;;;;;;;9.04;100.00;103787.94;5093138;27;99459;-28
2023/12/17 04:52:14;;;;;;;1.63;1.08;;;;;;;9.01;100.00;103780.75;5093702;27;97107;-28
2023/12/17 04:54:39;;;;;;;4.40;1.17;;;;;;;9.02;100.00;103787.94;5092533;27;99596;-28
2023/12/17 04:57:05;;;;;;;5.82;1.35;;;;;;;9.03;100.00;103791.53;5093645;27;96904;-30
2023/12/17 04:59:30;;;;;;;2.05;1.42;;;;;;;8.99;100.00;103771.75;5074477;27;100984;-30
2023/12/17 05:01:56;;;;;;;4.47;1.25;;;;;;;9.01;100.00;103782.53;5093451;27;97350;-29
2023/12/17 05:04:21;;;;;;;0.98;0.85;;;;;;;9.05;100.00;103789.72;5093646;27;96523;-30
2023/12/17 05:06:47;;;;;;;2.70;1.30;;;;;;;8.97;100.00;103770.84;5093239;27;96816;-28
2023/12/17 05:09:12;;;;;;;2.50;1.27;;;;;;;9.01;100.00;103777.13;5075538;27;101103;-28
2023/12/17 05:11:38;;;;;;;1.35;0.95;;;;;;;8.99;100.00;103778.97;5097403;27;97314;-29
2023/12/17 05:14:03;;;;;;;3.50;0.98;;;;;;;8.95;100.00;103780.78;5097185;27;96537;-28
2023/12/17 05:16:28;;;;;;;1.58;0.90;;;;;;;8.96;100.00;103776.25;5097233;27;96773;-28
2023/12/17 05:18:54;;;;;;;3.63;0.93;;;;;;;8.99;100.00;103789.78;5096135;27;99234;-28
2023/12/17 05:21:19;;;;;;;7.10;1.50;;;;;;;8.97;100.00;103778.97;5096872;27;97278;-28
2023/12/17 05:23:44;;;;;;;4.07;1.05;;;;;;;8.95;100.00;103777.19;5097025;27;96651;-28
2023/12/17 05:26:09;;;;;;;0.88;0.65;;;;;;;8.93;100.00;103769.97;5096912;27;96863;-28
2023/12/17 05:28:37;;;;;;;1.45;1.02;;;;;;;8.96;100.00;103777.16;5096774;27;97327;-28
2023/12/17 05:31:03;;;;;;;4.15;1.85;;;;;;;8.97;100.00;103772.66;5096236;27;99410;-28
2023/12/17 05:33:28;;;;;;;5.32;1.10;;;;;;;8.98;100.00;103774.44;5096474;27;96366;-29
2023/12/17 05:35:54;;;;;;;6.82;1.45;;;;;;;8.98;100.00;103790.66;5096939;27;97029;-28
2023/12/17 05:38:21;;;;;;;2.13;1.23;;;;;;;8.93;100.00;103772.66;5096506;27;98158;-29
2023/12/17 05:40:46;;;;;;;2.47;0.82;;;;;;;8.90;100.00;103767.28;5077900;27;100929;-28
2023/12/17 05:43:11;;;;;;;2.47;1.70;;;;;;;8.92;100.00;103770.88;5096161;27;96469;-28
2023/12/17 05:45:37;;;;;;;6.15;1.77;;;;;;;8.97;100.00;103767.25;5078063;27;99944;-29
2023/12/17 05:48:02;;;;;;;3.25;1.48;;;;;;;8.91;100.00;103760.06;5096551;27;99199;-28
2023/12/17 05:50:27;;;;;;;7.70;1.55;;;;;;;8.93;100.00;103766.38;5095797;27;99103;-28
2023/12/17 05:52:53;;;;;;;1.27;1.05;;;;;;;8.92;100.00;103770.00;5096453;27;97205;-28
2023/12/17 05:55:20;;;;;;;2.22;1.52;;;;;;;8.95;100.00;103769.97;5096236;27;96878;-28
2023/12/17 05:57:49;;;;;;;6.85;1.92;;;;;;;8.96;100.00;103781.66;5077233;27;101272;-28
2023/12/17 06:00:16;;;;;;;7.57;2.08;;;;;;;8.91;100.00;103763.69;5077727;27;100836;-28
2023/12/17 06:02:41;;;;;;;6.55;3.00;;;;;;;8.96;100.00;103778.97;5077705;27;96953;-28
2023/12/17 06:05:07;;;;;;;5.65;2.28;;;;;;;8.97;100.00;103788.88;5078044;27;96879;-28
2023/12/17 06:07:32;;;;;;;3.80;2.55;;;;;;;8.92;100.00;103781.69;5095288;27;99213;-28
2023/12/17 06:09:58;;;;;;;5.05;3.15;;;;;;;8.88;100.00;103777.22;5095699;27;106025;-28
2023/12/17 06:12:23;;;;;;;7.28;3.33;;;;;;;8.93;100.00;103790.69;5096402;27;96485;-29
2023/12/17 06:14:49;;;;;;;5.50;2.65;;;;;;;8.89;100.00;103787.13;5095964;27;99101;-28
2023/12/17 06:17:14;;;;;;;6.35;3.45;;;;;;;8.90;100.00;103783.50;5096131;27;97954;-28
2023/12/17 06:19:40;;;;;;;9.07;2.53;;;;;;;8.87;100.00;103780.84;5096105;27;97294;-28
2023/12/17 06:22:05;;;;;;;6.30;2.88;;;;;;;8.88;100.00;103779.91;5076131;27;96652;-28
2023/12/17 06:24:31;;;;;;;6.20;3.08;;;;;;;8.83;100.00;103781.75;5096309;27;96883;-28
2023/12/17 06:26:56;;;;;;;8.18;3.97;;;;;;;8.84;100.00;103767.34;5095881;27;98310;-28
2023/12/17 06:29:21;;;;;;;9.48;3.60;;;;;;;8.82;100.00;103761.06;5095752;27;98330;-28
2023/12/17 06:31:47;;;;;;;5.22;3.38;;;;;;;8.84;100.00;103763.72;5094951;27;96657;-28
2023/12/17 06:34:13;;;;;;;7.68;3.15;;;;;;;8.82;100.00;103769.16;5095558;27;96734;-28
2023/12/17 06:36:38;;;;;;;3.35;1.98;;;;;;;8.81;100.00;103766.47;5095295;27;99765;-28
2023/12/17 06:39:08;;;;;;;4.40;2.63;;;;;;;8.77;100.00;103771.00;5095572;27;99166;-29
2023/12/17 06:41:33;;;;;;;4.82;2.58;;;;;;;8.80;100.00;103780.91;5077169;27;96953;-29
2023/12/17 06:43:59;;;;;;;4.97;2.38;;;;;;;8.77;100.00;103772.78;5095781;27;96817;-28
2023/12/17 06:46:24;;;;;;;5.93;3.40;;;;;;;8.74;100.00;103770.13;5095212;27;99284;-28
2023/12/17 06:48:50;;;;;;;7.47;2.72;;;;;;;8.73;100.00;103780.03;5077114;27;101008;-28
2023/12/17 06:51:15;;;;;;;4.65;2.40;;;;;;;8.73;100.00;103785.44;5095115;27;96538;-28
2023/12/17 06:53:40;;;;;;;8.38;2.38;;;;;;;8.72;100.00;103775.50;5095308;27;96849;-28
2023/12/17 06:56:06;;;;;;;3.95;2.70;;;;;;;8.74;100.00;103783.63;5076485;27;98112;-29
2023/12/17 06:58:33;;;;;;;2.88;1.75;;;;;;;8.73;100.00;103789.94;5094765;27;99285;-29
2023/12/17 07:00:58;;;;;;;5.38;2.20;;;;;;;8.70;100.00;103786.34;5076735;27;96570;-29
2023/12/17 07:03:24;;;;;;;4.18;2.25;;;;;;;8.66;100.00;103779.16;5077279;27;96539;-28
2023/12/17 07:05:49;;;;;;;9.38;2.58;;;;;;;8.67;100.00;103778.25;5094900;27;99409;-28
2023/12/17 07:08:15;;;;;;;7.15;3.10;;;;;;;8.63;100.00;103781.00;5076491;27;101020;-28
2023/12/17 07:10:40;;;;;;;4.57;2.25;;;;;;;8.62;100.00;103776.50;5095108;27;96553;-28
2023/12/17 07:13:05;;;;;;;3.25;1.70;;;;;;;8.62;100.00;103787.31;5076911;27;96824;-28
2023/12/17 07:15:31;;;;;;;6.45;2.13;;;;;;;8.61;100.00;103777.41;5095008;27;98342;-27
2023/12/17 07:17:56;;;;;;;6.32;1.67;;;;;;;8.62;100.00;103776.50;5094957;27;101079;-29
2023/12/17 07:20:21;;;;;;;4.70;2.45;;;;;;;8.56;100.00;103773.84;5094437;27;96650;-28
2023/12/17 07:22:48;;;;;;;3.58;1.92;;;;;;;8.59;100.00;103784.63;5094744;27;96716;-28
2023/12/17 07:25:13;;;;;;;5.13;3.13;;;;;;;8.55;100.00;103775.63;5094581;27;99866;-28
2023/12/17 07:27:38;;;;;;;3.67;1.85;;;;;;;8.58;100.00;103789.16;5094915;27;97348;-28
2023/12/17 07:30:04;;;;;;;3.92;2.60;;;;;;;8.55;100.00;103781.03;5076545;27;96802;-29
2023/12/17 07:32:30;;;;;;;5.47;2.22;;;;;;;8.50;100.00;103777.47;5094551;27;96902;-29
2023/12/17 07:34:55;;;;;;;3.13;1.65;;;;;;;8.48;100.00;103774.75;5094623;27;97438;-30
2023/12/17 07:37:20;;;;;;;4.25;2.25;;;;;;;8.50;100.00;103786.47;5094565;27;107354;-28
2023/12/17 07:39:46;;;;;;;2.75;1.50;;;;;;;8.47;100.00;103775.69;5094987;27;96461;-28
2023/12/17 07:42:11;;;;;;;2.65;1.63;;;;;;;8.50;100.00;103789.16;5094975;27;96773;-28
2023/12/17 07:44:36;;;;;;;3.90;2.13;;;;;;;8.43;100.00;103790.09;5093790;27;99249;-28
2023/12/17 07:47:02;;;;;;;5.47;2.50;;;;;;;8.46;100.00;103791.88;5094537;27;97901;-29
2023/12/17 07:49:27;;;;;;;4.15;2.55;;;;;;;8.41;100.00;103785.63;5094966;27;96616;-28
2023/12/17 07:51:53;;;;;;;2.92;2.10;;;;;;;8.43;100.00;103802.72;5094372;27;96841;-28
2023/12/17 07:54:18;;;;;;;3.40;1.83;;;;;;;8.40;100.00;103800.94;5094394;27;97451;-28
2023/12/17 07:56:44;;;;;;;3.22;1.90;;;;;;;8.40;100.00;103806.31;5075862;27;101295;-28
2023/12/17 07:59:09;;;;;;;3.33;2.17;;;;;;;8.37;100.00;103797.31;5093948;27;96540;-28
2023/12/17 08:01:35;;;;;;;2.50;1.48;;;;;;;8.33;100.00;103791.03;5095032;27;96813;-28
2023/12/17 08:04:01;;;;;;;2.33;1.73;;;;;;;8.28;100.00;103792.84;5094300;27;97983;-28
2023/12/17 08:06:26;;;;;;;3.45;2.00;;;;;;;8.34;100.00;103808.13;5094106;27;97321;-28
2023/12/17 08:08:57;;;;;;;6.70;2.75;;;;;;;8.31;100.00;103795.53;5093567;27;99860;-28
2023/12/17 08:11:22;;;;;;;4.88;2.17;;;;;;;8.30;100.00;103802.75;5094604;27;96509;-28
2023/12/17 08:13:48;;;;;;;4.43;2.28;;;;;;;8.25;100.00;103798.28;5094015;27;98509;-30
2023/12/17 08:16:14;;;;;;;3.17;2.30;;;;;;;8.28;100.00;103800.94;5075408;27;101041;-28
2023/12/17 08:18:39;;;;;;;4.47;2.75;;;;;;;8.23;100.00;103802.78;5094018;27;96885;-32
2023/12/17 08:21:05;;;;;;;5.38;2.85;;;;;;;8.23;100.00;103817.16;5093830;27;96856;-28
2023/12/17 08:23:30;;;;;;;5.53;3.15;;;;;;;8.20;100.00;103816.28;5075581;27;97535;-29
2023/12/17 08:25:56;;;;;;;5.90;2.30;;;;;;;8.16;100.00;103806.41;5094296;27;97906;-28
2023/12/17 08:28:21;;;;;;;5.13;2.47;;;;;;;8.21;100.00;103818.09;5093936;27;96560;-29
2023/12/17 08:30:48;;;;;;;4.78;3.15;;;;;;;8.19;100.00;103806.38;5074975;27;96784;-28
2023/12/17 08:33:14;;;;;;;4.63;2.17;;;;;;;8.21;100.00;103818.09;5074663;27;101260;-29
2023/12/17 08:35:39;;;;;;;5.55;2.80;;;;;;;8.20;100.00;103806.41;5075232;27;99506;-28
2023/12/17 08:38:06;;;;;;;5.13;2.72;;;;;;;8.16;100.00;103795.59;5093913;27;96734;-28
2023/12/17 08:40:39;;;;;;;6.30;3.00;;;;;;;8.18;100.00;103793.81;5093885;27;96785;-28
2023/12/17 08:43:09;;;;;;;6.72;2.95;;;;;;;8.21;100.00;103815.38;5074907;27;101545;-28
2023/12/17 08:45:35;;;;;;;6.00;3.58;;;;;;;8.19;100.00;103817.19;5093010;27;97705;-28
2023/12/17 08:48:01;;;;;;;7.82;3.85;;;;;;;8.12;100.00;103816.31;5074944;27;96759;-28
2023/12/17 08:50:26;;;;;;;6.22;2.90;;;;;;;8.15;100.00;103815.38;5075131;27;96956;-28
2023/12/17 08:52:52;;;;;;;6.80;3.95;;;;;;;8.13;100.00;103812.72;5074990;27;100930;-28
2023/12/17 08:55:19;;;;;;;8.02;3.75;;;;;;;8.13;100.00;103810.03;5074766;27;100586;-28
2023/12/17 08:57:45;;;;;;;4.82;2.95;;;;;;;8.06;100.00;103813.66;5092457;27;96728;-28
2023/12/17 09:00:11;;;;;;;5.10;2.85;;;;;;;8.08;100.00;103815.44;5093723;27;96610;-28
2023/12/17 09:02:36;;;;;;;6.43;3.40;;;;;;;8.09;100.00;103811.81;5074635;27;100812;-29
2023/12/17 09:05:02;;;;;;;4.97;3.03;;;;;;;8.11;100.00;103810.94;5093391;27;96572;-28
2023/12/17 09:07:28;;;;;;;11.52;4.25;;;;;;;8.08;100.00;103791.13;5074900;27;96600;-28
2023/12/17 09:09:53;;;;;;;7.07;3.92;;;;;;;8.08;100.00;103783.03;5093442;27;96892;-28
2023/12/17 09:12:19;;;;;;;3.95;2.42;;;;;;;8.15;100.00;103793.78;5093368;27;97980;-28
2023/12/17 09:14:45;;;;;;;6.32;3.33;;;;;;;8.15;100.00;103804.59;5074835;27;101222;-27
2023/12/17 09:17:10;;;;;;;10.00;4.22;;;;;;;8.11;100.00;103797.44;5074438;27;96761;-28
2023/12/17 09:19:36;;;;;;;13.68;4.90;;;;;;;8.08;100.00;103817.25;5093266;27;96785;-28
2023/12/17 09:22:01;;;;;;;5.00;3.03;;;;;;;8.06;100.00;103809.13;5092719;27;97917;-28
2023/12/17 09:24:27;;;;;;;6.13;3.63;;;;;;;8.03;100.00;103798.34;5093093;27;98874;-28
2023/12/17 09:26:53;;;;;;;7.57;3.80;;;;;;;8.09;100.00;103817.22;5074606;27;96582;-28
2023/12/17 09:29:20;;;;;;;5.03;3.15;;;;;;;8.10;100.00;103820.81;5074565;27;96856;-28
2023/12/17 09:31:45;;;;;;;5.32;3.47;;;;;;;8.07;100.00;103820.81;5073782;27;101207;-29
2023/12/17 09:34:11;;;;;;;7.82;3.55;;;;;;;8.07;100.00;103820.81;5092785;27;99094;-27
2023/12/17 09:36:36;;;;;;;6.03;3.33;;;;;;;8.12;100.00;103829.81;5092927;27;96532;-28
2023/12/17 09:39:01;;;;;;;5.05;2.95;;;;;;;8.05;100.00;103819.94;5093435;27;96813;-29
2023/12/17 09:41:27;;;;;;;5.63;3.72;;;;;;;8.07;100.00;103821.72;5092830;27;99500;-28
2023/12/17 09:43:52;;;;;;;6.90;3.42;;;;;;;8.06;100.00;103825.34;5093057;27;97162;-28
2023/12/17 09:46:19;;;;;;;4.40;3.10;;;;;;;8.07;100.00;103829.81;5092336;27;96718;-28
2023/12/17 09:48:47;;;;;;;6.35;3.85;;;;;;;7.98;100.00;103821.75;5074389;27;96950;-28
2023/12/17 09:51:13;;;;;;;6.95;4.47;;;;;;;8.03;100.00;103829.81;5073723;27;101053;-28
2023/12/17 09:53:39;;;;;;;9.70;4.75;;;;;;;8.02;100.00;103831.63;5074019;27;98752;-28
2023/12/17 09:56:05;;;;;;;8.57;4.38;;;;;;;8.05;100.00;103838.81;5076453;27;96681;-28
2023/12/17 09:58:30;;;;;;;8.35;4.65;;;;;;;8.00;100.00;103830.72;5095655;27;96782;-28
2023/12/17 10:00:55;;;;;;;7.63;4.10;;;;;;;8.06;100.00;103840.63;5095871;27;99037;-28
2023/12/17 10:03:21;;;;;;;9.00;4.55;;;;;;;8.00;100.00;103828.03;5096638;27;97775;-29
2023/12/17 10:05:53;;;;;;;5.80;3.30;;;;;;;7.99;100.00;103831.66;5096245;27;96516;-28
2023/12/17 10:08:19;;;;;;;10.25;3.97;;;;;;;8.00;100.00;103819.94;5077783;27;96845;-28
2023/12/17 10:10:45;;;;;;;8.70;5.18;;;;;;;8.06;100.00;103836.13;5077048;27;101187;-28
2023/12/17 10:13:21;;;;;;;9.38;5.25;;;;;;;8.07;100.00;103831.63;5096031;27;99124;-28
2023/12/17 10:15:51;;;;;;;8.75;4.15;;;;;;;8.12;100.00;103828.91;5077466;27;96662;-28
2023/12/17 10:18:17;;;;;;;9.50;5.30;;;;;;;8.08;100.00;103817.25;5096340;27;96699;-29
2023/12/17 10:20:46;;;;;;;6.45;4.25;;;;;;;8.08;100.00;103803.75;5077136;27;100824;-30
2023/12/17 10:23:12;;;;;;;5.18;3.42;;;;;;;8.10;100.00;103801.91;5077316;27;101338;-28
2023/12/17 10:25:42;;;;;;;6.00;3.60;;;;;;;8.09;100.00;103800.13;5077461;27;96696;-28
2023/12/17 10:28:11;;;;;;;9.13;3.70;;;;;;;8.13;100.00;103812.72;5096178;27;96770;-28
2023/12/17 10:30:38;;;;;;;6.63;4.03;;;;;;;8.12;100.00;103792.00;5095528;27;97490;-28
2023/12/17 10:33:05;;;;;;;7.70;3.92;;;;;;;8.12;100.00;103785.72;5076981;27;101874;-29
2023/12/17 10:35:32;;;;;;;5.50;2.92;;;;;;;8.05;100.00;103779.44;5095310;27;96531;-29
2023/12/17 10:38:07;;;;;;;8.55;5.15;;;;;;;8.13;100.00;103801.91;5077040;27;96872;-28
2023/12/17 10:40:34;;;;;;;6.32;3.92;;;;;;;8.13;100.00;103790.19;5076750;27;99394;-29
2023/12/17 10:42:59;;;;;;;4.53;2.65;;;;;;;8.08;100.00;103784.84;5076885;27;100667;-28
2023/12/17 10:45:26;;;;;;;14.93;4.68;;;;;;;8.09;100.00;103779.41;5095850;27;96600;-28
2023/12/17 10:47:56;;;;;;;10.43;4.95;;;;;;;8.09;100.00;103781.22;5077275;27;96776;-29
2023/12/17 10:50:25;;;;;;;5.07;2.65;;;;;;;8.03;100.00;103768.66;5076442;27;101262;-28
2023/12/17 10:52:50;;;;;;;7.57;3.47;;;;;;;8.06;100.00;103760.53;5077035;27;100682;-28
2023/12/17 10:55:17;;;;;;;4.35;2.47;;;;;;;8.04;100.00;103761.47;5076703;27;96639;-28
2023/12/17 10:57:47;;;;;;;4.22;2.95;;;;;;;8.12;100.00;103770.41;5076335;27;96825;-29
2023/12/17 11:00:16;;;;;;;7.38;3.70;;;;;;;8.12;100.00;103762.31;5076259;27;100563;-28
2023/12/17 11:02:43;;;;;;;5.45;3.83;;;;;;;8.18;100.00;103759.59;5076585;27;101864;-29
2023/12/17 11:05:09;;;;;;;9.35;4.05;;;;;;;8.15;100.00;103751.53;5076770;27;97162;-29
2023/12/17 11:07:34;;;;;;;6.82;3.63;;;;;;;8.21;100.00;103747.88;5095012;27;96886;-29
2023/12/17 11:10:00;;;;;;;4.00;2.88;;;;;;;8.24;100.00;103754.16;5076452;27;101007;-28
2023/12/17 11:12:26;;;;;;;4.53;3.20;;;;;;;8.34;100.00;103752.28;5095357;27;97916;-29
2023/12/17 11:14:51;;;;;;;7.45;3.70;;;;;;;8.40;100.00;103749.59;5094916;27;96686;-31
2023/12/17 11:17:17;;;;;;;10.82;2.88;;;;;;;8.48;100.00;103736.94;5095523;27;96804;-28